Aviation Digital Data Service (ADDS)

Output produced by METARs form (0147 UTC 16 January 2019)
found at http://www.aviationweather.gov/metar/data/
 
VYMD 160130Z 00000KT 4000 BR FEW020 SCT140 13/11 Q1016
VYYY 160130Z 33003KT 7000 SCT250 22/19 Q1014
TAF VYYY 152300Z 1600/1624 3000 BR 
     BECMG 1600/1602 3000 BR 
     TEMPO 1610/1614 6000 HZ